createdAt,value
2022-09-30T00:02:02.213Z,43.03
2022-09-30T00:04:32.896Z,42.30
2022-09-30T00:07:03.208Z,51.58
2022-09-30T00:09:32.821Z,48.60
2022-09-30T00:12:01.541Z,46.42
2022-09-30T00:14:30.015Z,53.55
2022-09-30T00:16:58.389Z,62.53
2022-09-30T00:19:28.847Z,54.88
2022-09-30T00:21:58.023Z,52.20
2022-09-30T00:24:32.371Z,50.67
2022-09-30T00:27:01.107Z,51.83
2022-09-30T00:29:29.478Z,62.25
2022-09-30T00:31:58.499Z,55.10
2022-09-30T00:34:27.107Z,65.93
2022-09-30T00:36:57.191Z,60.67
2022-09-30T00:39:32.648Z,63.28
2022-09-30T00:42:08.412Z,61.78
2022-09-30T00:44:51.175Z,79.07
2022-09-30T00:47:35.269Z,67.63
2022-09-30T00:50:12.487Z,82.20
2022-09-30T00:52:42.805Z,75.60
2022-09-30T00:55:28.721Z,77.78
2022-09-30T00:57:58.552Z,74.18
2022-09-30T01:00:28.121Z,66.32
2022-09-30T01:02:57.214Z,69.03
2022-09-30T01:05:27.922Z,67.00
2022-09-30T01:07:59.579Z,62.42
2022-09-30T01:10:29.165Z,74.90
2022-09-30T01:12:58.266Z,67.63
2022-09-30T01:15:37.314Z,65.72
2022-09-30T01:18:12.392Z,74.85
2022-09-30T01:21:10.452Z,65.68
2022-09-30T01:24:12.974Z,68.47
2022-09-30T01:27:03.390Z,71.13
2022-09-30T01:30:05.825Z,64.50
2022-09-30T01:33:07.279Z,67.45
2022-09-30T01:35:53.152Z,64.15
2022-09-30T01:38:29.837Z,61.95
2022-09-30T01:41:07.701Z,63.60
2022-09-30T01:43:45.659Z,100.03
2022-09-30T01:46:27.355Z,71.30
2022-09-30T01:49:06.705Z,62.03
2022-09-30T01:51:41.743Z,52.47
2022-09-30T01:54:21.545Z,49.33
2022-09-30T01:56:54.205Z,55.30
2022-09-30T01:59:29.530Z,58.17
2022-09-30T02:02:05.126Z,55.47
2022-09-30T02:04:37.825Z,50.63
2022-09-30T02:07:11.378Z,73.88
2022-09-30T02:09:45.972Z,58.28
2022-09-30T02:12:20.848Z,49.85
2022-09-30T02:14:55.838Z,52.38
2022-09-30T02:17:29.641Z,45.72
2022-09-30T02:20:14.029Z,43.85
2022-09-30T02:22:44.841Z,43.80
2022-09-30T02:25:20.828Z,50.50
2022-09-30T02:27:55.208Z,31.58
2022-09-30T02:30:23.707Z,36.67
2022-09-30T02:32:56.503Z,47.17
2022-09-30T02:35:29.946Z,40.88
2022-09-30T02:38:03.784Z,40.17
2022-09-30T02:40:40.044Z,41.28
2022-09-30T02:43:10.492Z,42.13
2022-09-30T02:45:48.438Z,43.33
2022-09-30T02:48:29.432Z,48.80
2022-09-30T02:51:07.491Z,41.05
2022-09-30T02:53:43.929Z,36.55
2022-09-30T02:56:21.489Z,35.95
2022-09-30T02:58:52.933Z,31.20
2022-09-30T03:01:22.941Z,32.65
2022-09-30T03:03:57.929Z,37.72
2022-09-30T03:06:30.381Z,31.88
2022-09-30T03:09:02.104Z,35.60
2022-09-30T03:11:39.700Z,51.97
2022-09-30T03:14:24.367Z,33.28
2022-09-30T03:17:24.799Z,38.00
2022-09-30T03:20:08.061Z,33.38
2022-09-30T03:22:54.099Z,33.90
2022-09-30T03:25:35.713Z,32.05
2022-09-30T03:28:14.247Z,32.35
2022-09-30T03:30:53.793Z,34.30
2022-09-30T03:33:30.506Z,29.98
2022-09-30T03:36:10.049Z,34.00
2022-09-30T03:38:46.673Z,33.92
2022-09-30T03:41:23.815Z,36.78
2022-09-30T03:43:58.389Z,33.60
2022-09-30T03:46:35.605Z,31.25
2022-09-30T03:49:11.454Z,35.65
2022-09-30T03:51:43.470Z,31.23
2022-09-30T03:54:17.645Z,31.52
2022-09-30T03:56:45.944Z,33.58
2022-09-30T03:59:21.916Z,35.15
2022-09-30T04:01:51.603Z,35.35
2022-09-30T04:04:20.561Z,39.35
2022-09-30T04:06:53.781Z,33.60
2022-09-30T04:09:28.947Z,33.97
2022-09-30T04:11:59.192Z,33.88
2022-09-30T04:14:34.397Z,36.70
2022-09-30T04:17:02.795Z,32.30
2022-09-30T04:19:31.434Z,34.15
2022-09-30T04:22:00.626Z,36.60
2022-09-30T04:24:32.906Z,42.42
2022-09-30T04:27:01.469Z,42.45
2022-09-30T04:29:29.637Z,39.92
2022-09-30T04:32:05.308Z,36.50
2022-09-30T04:34:34.211Z,43.28
2022-09-30T04:37:05.369Z,37.85
2022-09-30T04:39:39.045Z,39.38
2022-09-30T04:42:07.380Z,34.28
2022-09-30T04:44:40.550Z,35.35
2022-09-30T04:47:10.240Z,45.15
2022-09-30T04:49:41.259Z,36.97
2022-09-30T04:52:09.469Z,34.10
2022-09-30T04:54:42.247Z,33.15
2022-09-30T04:57:17.385Z,33.67
2022-09-30T04:59:46.152Z,38.58
2022-09-30T05:02:15.240Z,30.63
2022-09-30T05:04:47.402Z,33.85
2022-09-30T05:07:20.463Z,34.63
2022-09-30T05:09:53.613Z,39.33
2022-09-30T05:12:22.398Z,31.05
2022-09-30T05:14:52.491Z,40.08
2022-09-30T05:17:22.438Z,30.48
2022-09-30T05:19:53.463Z,31.15
2022-09-30T05:22:26.055Z,35.67
2022-09-30T05:24:57.192Z,37.40
2022-09-30T05:27:28.119Z,37.85
2022-09-30T05:29:57.482Z,31.83
2022-09-30T05:32:26.234Z,36.00
2022-09-30T05:34:55.841Z,35.60
2022-09-30T05:37:24.618Z,35.70
2022-09-30T05:39:55.778Z,34.83
2022-09-30T05:42:25.810Z,39.47
2022-09-30T05:44:55.977Z,39.90
2022-09-30T05:47:24.995Z,48.28
2022-09-30T05:49:56.155Z,42.15
2022-09-30T05:52:25.166Z,41.83
2022-09-30T05:54:59.184Z,46.15
2022-09-30T05:57:30.187Z,44.53
2022-09-30T06:00:02.352Z,47.13
2022-09-30T06:02:30.885Z,38.55
2022-09-30T06:04:59.385Z,49.63
2022-09-30T06:07:28.316Z,53.97
2022-09-30T06:09:56.883Z,53.17
2022-09-30T06:12:28.471Z,45.63
2022-09-30T06:14:58.622Z,46.88
2022-09-30T06:17:27.204Z,44.22
2022-09-30T06:19:56.246Z,46.38
2022-09-30T06:22:25.021Z,51.05
2022-09-30T06:24:57.345Z,48.67
2022-09-30T06:27:26.002Z,41.63
2022-09-30T06:29:55.487Z,40.13
2022-09-30T06:32:26.367Z,44.08
2022-09-30T06:34:57.844Z,44.72
2022-09-30T06:37:27.183Z,47.47
2022-09-30T06:39:55.692Z,45.20
2022-09-30T06:42:25.090Z,43.45
2022-09-30T06:44:55.931Z,41.88
2022-09-30T06:47:26.249Z,40.45
2022-09-30T06:49:59.101Z,38.10
2022-09-30T06:52:29.473Z,38.80
2022-09-30T06:55:04.940Z,33.28
2022-09-30T06:57:39.164Z,31.85
2022-09-30T07:00:11.758Z,33.85
2022-09-30T07:02:48.815Z,31.10
2022-09-30T07:05:20.275Z,29.25
2022-09-30T07:07:49.307Z,30.70
2022-09-30T07:10:23.040Z,31.75
2022-09-30T07:12:53.309Z,32.55
2022-09-30T07:17:57.353Z,28.38
2022-09-30T07:20:27.505Z,29.08
2022-09-30T07:22:58.949Z,28.95
2022-09-30T07:25:28.450Z,31.50
2022-09-30T07:28:00.311Z,31.80
2022-09-30T07:33:03.363Z,33.95
2022-09-30T07:35:31.617Z,33.70
2022-09-30T07:38:04.601Z,33.00
2022-09-30T07:40:35.802Z,29.35
2022-09-30T07:43:06.013Z,32.90
2022-09-30T07:45:37.787Z,30.00
2022-09-30T07:50:56.801Z,28.85
2022-09-30T07:53:25.643Z,31.02
2022-09-30T07:56:03.633Z,29.92
2022-09-30T07:58:32.826Z,29.67
2022-09-30T08:01:01.587Z,26.50
2022-09-30T08:03:32.425Z,26.42
2022-09-30T08:06:08.247Z,27.20
2022-09-30T08:08:37.053Z,25.50
2022-09-30T08:11:10.162Z,25.67
2022-09-30T08:13:41.763Z,24.15
2022-09-30T08:16:10.818Z,26.52
2022-09-30T08:18:40.764Z,23.88
2022-09-30T08:21:09.571Z,23.40
2022-09-30T08:23:40.523Z,23.85
2022-09-30T08:26:16.584Z,23.83
2022-09-30T08:28:47.361Z,23.85
2022-09-30T08:31:18.033Z,26.67
2022-09-30T08:33:49.028Z,23.33
2022-09-30T08:36:22.615Z,26.30
2022-09-30T08:38:56.660Z,26.08
2022-09-30T08:41:50.784Z,27.17
2022-09-30T08:44:39.756Z,26.00
2022-09-30T08:47:31.148Z,29.67
2022-09-30T08:50:12.098Z,32.72
2022-09-30T08:52:48.709Z,32.53
2022-09-30T08:55:22.352Z,39.25
2022-09-30T08:57:53.592Z,39.92
2022-09-30T09:00:32.298Z,38.78
2022-09-30T09:03:14.008Z,42.53
2022-09-30T09:06:01.119Z,36.05
2022-09-30T09:08:50.204Z,38.60
2022-09-30T09:11:43.571Z,36.38
2022-09-30T09:14:21.000Z,39.03
2022-09-30T09:17:02.546Z,42.10
2022-09-30T09:22:04.728Z,36.33
2022-09-30T09:24:39.623Z,36.00
2022-09-30T09:27:20.205Z,32.67
2022-09-30T09:30:02.324Z,31.23
2022-09-30T09:32:30.978Z,29.48
2022-09-30T09:35:01.704Z,26.83
2022-09-30T09:37:57.665Z,25.38
2022-09-30T09:40:36.157Z,25.95
2022-09-30T09:43:18.821Z,19.30
2022-09-30T09:45:57.033Z,19.70
2022-09-30T09:48:26.258Z,17.77
2022-09-30T09:51:05.300Z,21.27
2022-09-30T09:53:49.728Z,17.25
2022-09-30T09:56:20.224Z,18.60
2022-09-30T09:59:12.165Z,17.88
2022-09-30T10:01:42.808Z,17.52
2022-09-30T10:04:25.222Z,17.48
2022-09-30T10:06:55.945Z,17.63
2022-09-30T10:09:36.912Z,16.50
2022-09-30T10:12:35.940Z,16.95
2022-09-30T10:15:17.698Z,17.10
2022-09-30T10:17:53.292Z,15.18
2022-09-30T10:20:31.207Z,14.90
2022-09-30T10:23:11.298Z,15.98
2022-09-30T10:25:56.885Z,12.43
2022-09-30T10:28:28.644Z,13.35
2022-09-30T10:33:32.205Z,12.63
2022-09-30T10:36:08.874Z,12.02
2022-09-30T10:41:14.061Z,15.55
2022-09-30T10:43:46.141Z,11.25
2022-09-30T10:46:28.185Z,11.98
2022-09-30T10:48:58.007Z,11.85
2022-09-30T10:51:34.157Z,11.57
2022-09-30T10:54:04.738Z,12.32
2022-09-30T10:56:45.892Z,12.55
2022-09-30T10:59:33.180Z,12.80
2022-09-30T11:02:18.037Z,11.43
2022-09-30T11:04:56.536Z,11.30
2022-09-30T11:07:33.050Z,11.32
2022-09-30T11:10:07.964Z,11.85
2022-09-30T11:12:48.000Z,12.57
2022-09-30T11:15:24.975Z,14.30
2022-09-30T11:18:00.108Z,13.13
2022-09-30T11:20:31.496Z,12.00
2022-09-30T11:23:09.319Z,11.25
2022-09-30T11:25:44.961Z,12.32
2022-09-30T11:28:36.960Z,11.32
2022-09-30T11:33:49.960Z,11.52
2022-09-30T11:36:29.153Z,10.60
2022-09-30T11:39:20.528Z,9.63
2022-09-30T11:41:57.192Z,9.48
2022-09-30T11:44:35.763Z,14.70
2022-09-30T11:47:20.443Z,8.88
2022-09-30T11:50:26.047Z,9.43
2022-09-30T11:53:06.709Z,9.88
2022-09-30T11:55:51.547Z,9.57
2022-09-30T11:58:42.377Z,9.90
2022-09-30T12:01:22.063Z,11.18
2022-09-30T12:03:58.102Z,11.50
2022-09-30T12:06:33.289Z,11.55
2022-09-30T12:09:22.378Z,13.70
2022-09-30T12:11:56.300Z,9.93
2022-09-30T12:14:32.521Z,8.70
2022-09-30T12:17:06.612Z,8.23
2022-09-30T12:19:41.408Z,9.10
2022-09-30T12:22:15.505Z,6.18
2022-09-30T12:24:49.658Z,7.85
2022-09-30T12:27:23.445Z,7.03
2022-09-30T12:30:17.846Z,5.97
2022-09-30T12:33:27.242Z,5.15
2022-09-30T12:36:23.705Z,10.68
2022-09-30T12:39:11.035Z,4.65
2022-09-30T12:41:57.987Z,6.13
2022-09-30T12:44:59.268Z,7.32
2022-09-30T12:47:37.419Z,4.88
2022-09-30T12:50:10.573Z,5.35
2022-09-30T12:52:39.632Z,6.75
2022-09-30T12:55:17.576Z,4.97
2022-09-30T12:57:49.036Z,4.80
2022-09-30T13:00:21.501Z,4.13
2022-09-30T13:02:55.501Z,6.30
2022-09-30T13:05:53.038Z,4.43
2022-09-30T13:08:47.463Z,3.47
2022-09-30T13:11:37.575Z,4.32
2022-09-30T13:14:32.232Z,5.18
2022-09-30T13:17:21.610Z,4.57
2022-09-30T13:19:51.935Z,4.88
2022-09-30T13:23:00.748Z,4.80
2022-09-30T13:25:55.396Z,4.43
2022-09-30T13:28:32.302Z,6.97
2022-09-30T13:31:14.687Z,6.15
2022-09-30T13:33:48.237Z,7.30
2022-09-30T13:36:25.643Z,7.00
2022-09-30T13:39:26.630Z,6.95
2022-09-30T13:42:08.276Z,7.63
2022-09-30T13:44:45.964Z,21.88
2022-09-30T13:47:23.136Z,15.13
2022-09-30T13:49:58.894Z,8.65
2022-09-30T13:52:31.557Z,8.15
2022-09-30T13:55:07.873Z,8.43
2022-09-30T13:57:43.673Z,6.28
2022-09-30T14:00:17.725Z,6.45
2022-09-30T14:03:12.156Z,7.57
2022-09-30T14:06:08.469Z,6.93
2022-09-30T14:09:19.122Z,8.27
2022-09-30T14:12:19.174Z,6.43
2022-09-30T14:15:33.171Z,8.45
2022-09-30T14:18:23.621Z,6.50
2022-09-30T14:21:06.120Z,8.73
2022-09-30T14:23:34.741Z,7.65
2022-09-30T14:26:18.637Z,6.43
2022-09-30T14:28:55.069Z,8.63
2022-09-30T14:31:24.355Z,6.90
2022-09-30T14:33:53.636Z,6.95
2022-09-30T14:36:24.037Z,6.88
2022-09-30T14:38:58.757Z,8.30
2022-09-30T14:41:30.159Z,6.65
2022-09-30T14:44:07.887Z,7.35
2022-09-30T14:46:40.200Z,7.75
2022-09-30T14:49:14.271Z,7.35
2022-09-30T14:51:47.477Z,8.13
2022-09-30T14:54:24.002Z,7.30
2022-09-30T14:56:54.551Z,8.48
2022-09-30T14:59:29.281Z,7.93
2022-09-30T15:02:02.727Z,6.70
2022-09-30T15:04:35.293Z,7.93
2022-09-30T15:07:09.089Z,6.38
2022-09-30T15:09:40.359Z,8.43
2022-09-30T15:12:14.748Z,7.10
2022-09-30T15:14:50.603Z,6.40
2022-09-30T15:17:21.444Z,7.05
2022-09-30T15:19:50.339Z,6.63
2022-09-30T15:22:22.684Z,8.27
2022-09-30T15:24:52.386Z,7.53
2022-09-30T15:27:23.521Z,8.85
2022-09-30T15:29:59.142Z,9.00
2022-09-30T15:32:30.102Z,7.28
2022-09-30T15:35:00.464Z,7.47
2022-09-30T15:37:34.096Z,8.80
2022-09-30T15:40:21.375Z,10.05
2022-09-30T15:42:59.446Z,8.80
2022-09-30T15:45:36.010Z,8.75
2022-09-30T15:48:08.216Z,12.73
2022-09-30T15:50:38.903Z,10.00
2022-09-30T15:53:21.429Z,9.60
2022-09-30T15:55:55.934Z,10.35
2022-09-30T15:58:38.264Z,12.30
2022-09-30T16:01:27.279Z,9.32
2022-09-30T16:03:59.360Z,8.73
2022-09-30T16:06:33.047Z,8.45
2022-09-30T16:09:06.542Z,8.95
2022-09-30T16:11:38.024Z,9.40
2022-09-30T16:14:11.611Z,25.25
2022-09-30T16:16:42.189Z,13.55
2022-09-30T16:19:19.122Z,10.82
2022-09-30T16:21:52.146Z,10.50
2022-09-30T16:24:44.928Z,9.65
2022-09-30T16:27:31.701Z,12.18
2022-09-30T16:30:01.185Z,11.18
2022-09-30T16:32:39.060Z,15.13
2022-09-30T16:35:15.096Z,17.30
2022-09-30T16:37:44.333Z,20.23
2022-09-30T16:40:23.104Z,18.13
2022-09-30T16:42:54.947Z,20.55
2022-09-30T16:47:59.863Z,12.60
2022-09-30T16:50:34.644Z,14.77
2022-09-30T16:53:04.669Z,12.55
2022-09-30T16:55:33.227Z,15.10
2022-09-30T16:58:01.380Z,14.32
2022-09-30T17:00:30.428Z,13.43
2022-09-30T17:03:03.486Z,13.20
2022-09-30T17:05:32.508Z,11.70
2022-09-30T17:08:01.602Z,14.45
2022-09-30T17:10:32.719Z,12.00
2022-09-30T17:13:02.606Z,10.15
2022-09-30T17:15:32.192Z,11.45
2022-09-30T17:18:12.261Z,11.60
2022-09-30T17:20:44.792Z,11.68
2022-09-30T17:23:15.189Z,12.82
2022-09-30T17:25:44.084Z,14.00
2022-09-30T17:28:15.625Z,13.18
2022-09-30T17:30:48.522Z,13.00
2022-09-30T17:33:20.111Z,17.55
2022-09-30T17:35:59.784Z,19.38
2022-09-30T17:38:28.490Z,25.70
2022-09-30T17:41:14.999Z,23.40
2022-09-30T17:43:46.247Z,22.85
2022-09-30T17:46:23.678Z,24.67
2022-09-30T17:48:57.915Z,22.30
2022-09-30T17:51:27.222Z,18.42
2022-09-30T17:53:58.011Z,26.75
2022-09-30T17:56:29.817Z,22.73
2022-09-30T17:58:58.570Z,22.75
2022-09-30T18:01:36.360Z,21.75
2022-09-30T18:04:06.677Z,25.77
2022-09-30T18:06:36.442Z,26.10
2022-09-30T18:09:08.817Z,25.25
2022-09-30T18:11:43.019Z,26.35
2022-09-30T18:14:14.379Z,25.83
2022-09-30T18:16:46.510Z,26.05
2022-09-30T18:19:16.998Z,25.00
2022-09-30T18:21:46.923Z,23.10
2022-09-30T18:24:16.573Z,24.13
2022-09-30T18:26:47.513Z,25.13
2022-09-30T18:29:18.473Z,23.53
2022-09-30T18:31:48.081Z,24.92
2022-09-30T18:34:19.341Z,27.10
2022-09-30T18:36:47.699Z,23.90
2022-09-30T18:39:16.285Z,22.38
2022-09-30T18:41:46.287Z,24.90
2022-09-30T18:44:15.277Z,34.20
2022-09-30T18:46:43.838Z,29.45
2022-09-30T18:49:15.727Z,24.90
2022-09-30T18:51:49.475Z,26.67
2022-09-30T18:54:24.135Z,30.95
2022-09-30T18:56:53.672Z,30.00
2022-09-30T18:59:24.058Z,36.63
2022-09-30T19:01:53.057Z,36.92
2022-09-30T19:04:23.412Z,34.97
2022-09-30T19:06:54.557Z,35.15
2022-09-30T19:11:55.670Z,32.17
2022-09-30T19:14:24.836Z,27.33
2022-09-30T19:16:53.218Z,31.80
2022-09-30T19:19:25.572Z,26.85
2022-09-30T19:22:00.251Z,32.08
2022-09-30T19:24:29.237Z,41.00
2022-09-30T19:26:58.349Z,31.60
2022-09-30T19:29:27.695Z,31.63
2022-09-30T19:31:58.570Z,34.17
2022-09-30T19:34:34.154Z,33.95
2022-09-30T19:37:07.412Z,30.13
2022-09-30T19:39:45.115Z,30.15
2022-09-30T19:42:14.722Z,33.88
2022-09-30T19:44:47.857Z,38.85
2022-09-30T19:47:16.053Z,40.78
2022-09-30T19:49:45.787Z,40.47
2022-09-30T19:52:21.930Z,37.55
2022-09-30T19:54:51.842Z,41.47
2022-09-30T19:57:25.009Z,40.88
2022-09-30T19:59:59.429Z,37.83
2022-09-30T20:02:33.991Z,36.53
2022-09-30T20:05:03.935Z,39.25
2022-09-30T20:07:35.280Z,40.92
2022-09-30T20:10:04.706Z,43.10
2022-09-30T20:12:34.387Z,42.35
2022-09-30T20:15:20.369Z,41.72
2022-09-30T20:17:54.065Z,44.35
2022-09-30T20:20:43.363Z,49.15
2022-09-30T20:23:16.258Z,49.45
2022-09-30T20:25:44.337Z,46.58
2022-09-30T20:28:13.750Z,43.67
2022-09-30T20:30:45.704Z,44.85
2022-09-30T20:33:20.183Z,41.97
2022-09-30T20:35:49.300Z,42.45
2022-09-30T20:38:25.209Z,44.25
2022-09-30T20:40:57.588Z,48.83
2022-09-30T20:43:28.206Z,45.47
2022-09-30T20:46:00.256Z,43.65
2022-09-30T20:48:33.277Z,46.05
2022-09-30T20:51:07.803Z,44.53
2022-09-30T20:53:40.577Z,46.85
2022-09-30T20:56:09.724Z,49.40
2022-09-30T20:58:40.097Z,47.85
2022-09-30T21:01:14.301Z,43.40
2022-09-30T21:03:48.213Z,42.22
2022-09-30T21:06:20.657Z,40.70
2022-09-30T21:08:54.403Z,39.55
2022-09-30T21:11:25.911Z,39.30
2022-09-30T21:14:02.183Z,40.40
2022-09-30T21:16:32.181Z,39.38
2022-09-30T21:19:05.874Z,37.60
2022-09-30T21:21:35.550Z,38.78
2022-09-30T21:24:07.888Z,43.35
2022-09-30T21:26:38.097Z,37.35
2022-09-30T21:29:10.614Z,38.78
2022-09-30T21:31:39.775Z,37.38
2022-09-30T21:34:10.287Z,35.05
2022-09-30T21:36:42.675Z,31.85
2022-09-30T21:39:14.102Z,32.33
2022-09-30T21:41:52.304Z,33.22
2022-09-30T21:44:25.653Z,34.22
2022-09-30T21:46:55.098Z,34.92
2022-09-30T21:49:24.956Z,31.63
2022-09-30T21:51:58.749Z,30.52
2022-09-30T21:54:32.477Z,34.33
2022-09-30T21:57:13.612Z,29.85
2022-09-30T21:59:46.290Z,33.95
2022-09-30T22:02:20.911Z,31.48
2022-09-30T22:04:51.870Z,34.10
2022-09-30T22:07:29.915Z,29.55
2022-09-30T22:10:03.391Z,29.27
2022-09-30T22:12:33.801Z,29.80
2022-09-30T22:15:06.027Z,35.50
2022-09-30T22:17:36.252Z,30.20
2022-09-30T22:20:09.410Z,31.83
2022-09-30T22:22:38.305Z,30.77
2022-09-30T22:25:11.145Z,33.03
2022-09-30T22:27:40.143Z,29.90
2022-09-30T22:30:10.548Z,29.45
2022-09-30T22:32:39.138Z,29.52
2022-09-30T22:35:25.882Z,34.00
2022-09-30T22:38:12.555Z,28.02
2022-09-30T22:40:42.125Z,34.53
2022-09-30T22:43:15.318Z,32.60
2022-09-30T22:45:46.332Z,32.97
2022-09-30T22:48:19.437Z,30.93
2022-09-30T22:50:48.273Z,33.88
2022-09-30T22:53:20.514Z,34.33
2022-09-30T22:58:20.260Z,30.67
2022-09-30T23:01:01.072Z,33.35
2022-09-30T23:03:29.356Z,34.45
2022-09-30T23:06:01.487Z,32.78
2022-09-30T23:08:31.176Z,31.33
2022-09-30T23:11:05.021Z,31.42
2022-09-30T23:13:36.430Z,33.92
2022-09-30T23:16:08.704Z,34.40
2022-09-30T23:18:39.961Z,37.25
2022-09-30T23:21:10.949Z,30.33
2022-09-30T23:23:44.639Z,29.67
2022-09-30T23:26:17.707Z,29.10
2022-09-30T23:28:47.022Z,29.38
2022-09-30T23:31:20.026Z,29.55
2022-09-30T23:33:51.227Z,28.65
2022-09-30T23:36:29.550Z,26.90
2022-09-30T23:39:04.058Z,33.00
2022-09-30T23:41:36.739Z,30.92
2022-09-30T23:44:09.257Z,30.15
2022-09-30T23:46:41.441Z,30.00
2022-09-30T23:49:11.130Z,28.75
2022-09-30T23:51:40.048Z,31.38
2022-09-30T23:54:08.434Z,31.88
2022-09-30T23:56:39.504Z,30.98
2022-09-30T23:59:07.802Z,26.92
